createdAt,value
2023-04-02T00:00:11.874Z,1002.63
2023-04-02T00:01:11.761Z,1002.52
2023-04-02T00:02:11.849Z,1002.65
2023-04-02T00:03:11.819Z,1002.70
2023-04-02T00:04:11.826Z,1002.75
2023-04-02T00:05:11.742Z,1002.73
2023-04-02T00:06:11.702Z,1002.80
2023-04-02T00:07:11.693Z,1002.80
2023-04-02T00:08:11.766Z,1002.81
2023-04-02T00:09:11.675Z,1002.89
2023-04-02T00:10:11.729Z,1002.95
2023-04-02T00:11:11.658Z,1002.91
2023-04-02T00:12:11.636Z,1002.80
2023-04-02T00:13:11.614Z,1002.88
2023-04-02T00:14:11.623Z,1002.98
2023-04-02T00:15:11.612Z,1002.98
2023-04-02T00:16:11.720Z,1002.95
2023-04-02T00:17:11.581Z,1002.95
2023-04-02T00:18:11.681Z,1002.98
2023-04-02T00:19:11.622Z,1003.05
2023-04-02T00:20:11.565Z,1003.09
2023-04-02T00:21:11.551Z,1003.09
2023-04-02T00:22:11.566Z,1003.12
2023-04-02T00:23:11.574Z,1003.16
2023-04-02T00:24:11.516Z,1003.21
2023-04-02T00:25:11.502Z,1003.24
2023-04-02T00:26:11.484Z,1003.22
2023-04-02T00:27:11.487Z,1003.25
2023-04-02T00:28:11.476Z,1003.35
2023-04-02T00:29:11.499Z,1003.34
2023-04-02T00:30:11.444Z,1003.39
2023-04-02T00:31:11.473Z,1003.46
2023-04-02T00:32:11.508Z,1003.38
2023-04-02T00:33:11.452Z,1003.42
2023-04-02T00:34:11.413Z,1003.43
2023-04-02T00:35:11.425Z,1003.44
2023-04-02T00:36:11.466Z,1003.54
2023-04-02T00:37:11.362Z,1003.54
2023-04-02T00:38:11.360Z,1003.51
2023-04-02T00:39:11.342Z,1003.56
2023-04-02T00:40:11.376Z,1003.56
2023-04-02T00:41:11.324Z,1003.44
2023-04-02T00:42:14.543Z,1003.61
2023-04-02T00:43:11.304Z,1003.62
2023-04-02T00:44:11.303Z,1003.67
2023-04-02T00:45:11.283Z,1003.58
2023-04-02T00:46:11.310Z,1003.63
2023-04-02T00:47:11.259Z,1003.68
2023-04-02T00:48:11.397Z,1003.72
2023-04-02T00:49:11.250Z,1003.71
2023-04-02T00:50:11.281Z,1003.70
2023-04-02T00:51:11.236Z,1003.72
2023-04-02T00:52:11.239Z,1003.75
2023-04-02T00:53:11.448Z,1003.79
2023-04-02T00:54:11.193Z,1003.73
2023-04-02T00:55:11.221Z,1003.88
2023-04-02T00:56:11.171Z,1003.81
2023-04-02T00:57:11.175Z,1003.72
2023-04-02T00:58:11.208Z,1003.83
2023-04-02T00:59:11.177Z,1003.92
2023-04-02T01:00:11.126Z,1003.89
2023-04-02T01:01:11.139Z,1003.91
2023-04-02T01:02:11.155Z,1003.95
2023-04-02T01:03:11.193Z,1003.84
2023-04-02T01:04:11.116Z,1003.99
2023-04-02T01:05:11.072Z,1003.97
2023-04-02T01:06:11.202Z,1003.94
2023-04-02T01:07:11.054Z,1003.98
2023-04-02T01:08:11.048Z,1004.00
2023-04-02T01:09:11.062Z,1004.11
2023-04-02T01:10:11.023Z,1003.94
2023-04-02T01:11:11.038Z,1004.04
2023-04-02T01:12:11.011Z,1004.14
2023-04-02T01:13:11.110Z,1004.05
2023-04-02T01:14:10.983Z,1004.16
2023-04-02T01:15:11.024Z,1004.10
2023-04-02T01:16:10.983Z,1004.12
2023-04-02T01:17:10.947Z,1004.19
2023-04-02T01:18:10.938Z,1004.21
2023-04-02T01:19:10.919Z,1004.23
2023-04-02T01:20:10.923Z,1004.15
2023-04-02T01:21:11.438Z,1004.22
2023-04-02T01:22:10.933Z,1004.23
2023-04-02T01:23:10.899Z,1004.30
2023-04-02T01:24:10.887Z,1004.27
2023-04-02T01:25:11.666Z,1004.19
2023-04-02T01:26:10.871Z,1004.30
2023-04-02T01:27:10.831Z,1004.33
2023-04-02T01:28:10.846Z,1004.32
2023-04-02T01:29:10.820Z,1004.37
2023-04-02T01:30:10.851Z,1004.29
2023-04-02T01:31:10.976Z,1004.39
2023-04-02T01:32:10.857Z,1004.37
2023-04-02T01:33:10.789Z,1004.38
2023-04-02T01:34:10.767Z,1004.46
2023-04-02T01:35:10.745Z,1004.40
2023-04-02T01:36:10.779Z,1004.44
2023-04-02T01:37:10.759Z,1004.47
2023-04-02T01:38:10.722Z,1004.53
2023-04-02T01:39:10.730Z,1004.55
2023-04-02T01:40:10.709Z,1004.50
2023-04-02T01:41:10.694Z,1004.52
2023-04-02T01:42:10.696Z,1004.52
2023-04-02T01:43:10.783Z,1004.56
2023-04-02T01:44:10.656Z,1004.63
2023-04-02T01:45:10.723Z,1004.65
2023-04-02T01:46:10.659Z,1004.59
2023-04-02T01:47:10.684Z,1004.55
2023-04-02T01:48:10.674Z,1004.67
2023-04-02T01:49:10.612Z,1004.76
2023-04-02T01:50:10.594Z,1004.70
2023-04-02T01:51:10.630Z,1004.73
2023-04-02T01:52:10.628Z,1004.72
2023-04-02T01:53:10.562Z,1004.78
2023-04-02T01:54:10.604Z,1004.86
2023-04-02T01:55:10.548Z,1004.86
2023-04-02T01:56:10.522Z,1004.86
2023-04-02T01:57:10.553Z,1004.84
2023-04-02T01:58:10.516Z,1004.79
2023-04-02T01:59:10.489Z,1004.86
2023-04-02T02:00:10.548Z,1004.94
2023-04-02T02:01:10.597Z,1004.97
2023-04-02T02:02:10.498Z,1004.95
2023-04-02T02:03:10.484Z,1005.01
2023-04-02T02:04:10.462Z,1004.97
2023-04-02T02:05:10.428Z,1005.02
2023-04-02T02:06:10.451Z,1005.03
2023-04-02T02:07:10.407Z,1005.06
2023-04-02T02:08:10.415Z,1005.03
2023-04-02T02:09:10.416Z,1005.10
2023-04-02T02:10:10.382Z,1005.10
2023-04-02T02:11:10.366Z,1005.06
2023-04-02T02:12:10.429Z,1005.08
2023-04-02T02:13:10.361Z,1005.07
2023-04-02T02:14:10.336Z,1005.16
2023-04-02T02:15:10.359Z,1005.19
2023-04-02T02:16:10.501Z,1005.21
2023-04-02T02:17:10.299Z,1005.13
2023-04-02T02:18:10.298Z,1005.16
2023-04-02T02:19:10.281Z,1005.21
2023-04-02T02:20:10.278Z,1005.26
2023-04-02T02:21:10.307Z,1005.27
2023-04-02T02:22:10.286Z,1005.24
2023-04-02T02:23:10.253Z,1005.22
2023-04-02T02:24:10.291Z,1005.32
2023-04-02T02:25:10.215Z,1005.33
2023-04-02T02:26:10.222Z,1005.39
2023-04-02T02:27:10.201Z,1005.38
2023-04-02T02:28:10.194Z,1005.45
2023-04-02T02:29:10.180Z,1005.44
2023-04-02T02:30:10.210Z,1005.43
2023-04-02T02:31:10.150Z,1005.49
2023-04-02T02:32:10.188Z,1005.49
2023-04-02T02:33:10.178Z,1005.45
2023-04-02T02:34:10.151Z,1005.42
2023-04-02T02:35:10.136Z,1005.59
2023-04-02T02:36:10.161Z,1005.64
2023-04-02T02:37:10.163Z,1005.59
2023-04-02T02:38:10.126Z,1005.62
2023-04-02T02:39:10.079Z,1005.51
2023-04-02T02:40:10.062Z,1005.71
2023-04-02T02:41:10.092Z,1005.71
2023-04-02T02:42:10.070Z,1005.66
2023-04-02T02:43:10.033Z,1005.69
2023-04-02T02:44:10.017Z,1005.72
2023-04-02T02:45:10.008Z,1005.74
2023-04-02T02:46:10.025Z,1005.64
2023-04-02T02:47:09.985Z,1005.71
2023-04-02T02:48:10.018Z,1005.65
2023-04-02T02:49:09.972Z,1005.78
2023-04-02T02:50:09.951Z,1005.78
2023-04-02T02:51:09.983Z,1005.89
2023-04-02T02:52:09.932Z,1005.85
2023-04-02T02:53:09.915Z,1005.85
2023-04-02T02:54:09.945Z,1005.95
2023-04-02T02:55:09.901Z,1005.96
2023-04-02T02:56:09.934Z,1005.93
2023-04-02T02:57:09.933Z,1006.00
2023-04-02T02:58:09.873Z,1005.90
2023-04-02T02:59:09.864Z,1006.07
2023-04-02T03:00:09.856Z,1006.00
2023-04-02T03:01:09.896Z,1006.06
2023-04-02T03:02:09.905Z,1006.08
2023-04-02T03:03:10.092Z,1006.10
2023-04-02T03:04:09.916Z,1006.15
2023-04-02T03:05:09.829Z,1006.20
2023-04-02T03:06:09.781Z,1006.25
2023-04-02T03:07:09.773Z,1006.24
2023-04-02T03:08:09.766Z,1006.29
2023-04-02T03:09:09.812Z,1006.13
2023-04-02T03:10:09.776Z,1006.26
2023-04-02T03:11:09.732Z,1006.24
2023-04-02T03:12:09.710Z,1006.25
2023-04-02T03:13:09.716Z,1006.29
2023-04-02T03:14:09.692Z,1006.26
2023-04-02T03:15:09.690Z,1006.29
2023-04-02T03:16:09.808Z,1006.39
2023-04-02T03:17:09.779Z,1006.38
2023-04-02T03:18:09.700Z,1006.41
2023-04-02T03:19:09.652Z,1006.34
2023-04-02T03:20:09.629Z,1006.42
2023-04-02T03:21:09.632Z,1006.44
2023-04-02T03:22:09.612Z,1006.45
2023-04-02T03:23:09.664Z,1006.46
2023-04-02T03:24:09.593Z,1006.45
2023-04-02T03:25:09.591Z,1006.48
2023-04-02T03:26:09.576Z,1006.53
2023-04-02T03:27:09.617Z,1006.56
2023-04-02T03:28:09.605Z,1006.55
2023-04-02T03:29:09.564Z,1006.51
2023-04-02T03:30:10.271Z,1006.60
2023-04-02T03:31:09.534Z,1006.60
2023-04-02T03:32:09.585Z,1006.67
2023-04-02T03:33:09.587Z,1006.65
2023-04-02T03:34:09.635Z,1006.73
2023-04-02T03:35:09.486Z,1006.72
2023-04-02T03:36:09.471Z,1006.83
2023-04-02T03:37:09.502Z,1006.82
2023-04-02T03:38:09.452Z,1006.83
2023-04-02T03:39:09.442Z,1006.84
2023-04-02T03:40:09.479Z,1006.84
2023-04-02T03:41:09.474Z,1006.94
2023-04-02T03:42:09.409Z,1006.93
2023-04-02T03:43:09.391Z,1007.00
2023-04-02T03:44:09.389Z,1006.99
2023-04-02T03:45:09.379Z,1006.86
2023-04-02T03:46:09.435Z,1007.05
2023-04-02T03:47:09.437Z,1007.01
2023-04-02T03:48:09.339Z,1007.04
2023-04-02T03:49:09.372Z,1007.04
2023-04-02T03:50:09.314Z,1007.05
2023-04-02T03:51:09.305Z,1007.09
2023-04-02T03:52:09.309Z,1007.16
2023-04-02T03:53:09.334Z,1007.16
2023-04-02T03:54:09.267Z,1007.16
2023-04-02T03:55:09.334Z,1007.23
2023-04-02T03:56:09.303Z,1007.22
2023-04-02T03:57:09.278Z,1007.27
2023-04-02T03:58:09.315Z,1007.27
2023-04-02T03:59:09.220Z,1007.32
2023-04-02T04:00:09.218Z,1007.39
2023-04-02T04:01:09.198Z,1007.36
2023-04-02T04:02:09.307Z,1007.41
2023-04-02T04:03:09.217Z,1007.47
2023-04-02T04:04:09.215Z,1007.42
2023-04-02T04:05:09.159Z,1007.48
2023-04-02T04:06:09.140Z,1007.46
2023-04-02T04:07:09.139Z,1007.43
2023-04-02T04:08:09.166Z,1007.59
2023-04-02T04:09:09.111Z,1007.53
2023-04-02T04:10:09.112Z,1007.67
2023-04-02T04:11:09.139Z,1007.63
2023-04-02T04:12:09.133Z,1007.64
2023-04-02T04:13:09.096Z,1007.71
2023-04-02T04:14:09.063Z,1007.65
2023-04-02T04:15:09.054Z,1007.76
2023-04-02T04:16:09.073Z,1007.72
2023-04-02T04:17:09.045Z,1007.78
2023-04-02T04:18:09.101Z,1007.83
2023-04-02T04:19:09.006Z,1007.81
2023-04-02T04:20:09.015Z,1007.91
2023-04-02T04:21:09.110Z,1007.87
2023-04-02T04:22:08.975Z,1007.94
2023-04-02T04:23:09.010Z,1007.88
2023-04-02T04:24:08.956Z,1007.94
2023-04-02T04:25:08.958Z,1007.91
2023-04-02T04:26:08.943Z,1008.01
2023-04-02T04:27:08.925Z,1008.00
2023-04-02T04:28:08.911Z,1008.00
2023-04-02T04:29:09.833Z,1008.02
2023-04-02T04:30:08.896Z,1008.03
2023-04-02T04:31:08.890Z,1008.05
2023-04-02T04:32:08.923Z,1008.09
2023-04-02T04:33:08.906Z,1008.09
2023-04-02T04:34:08.846Z,1008.11
2023-04-02T04:35:08.873Z,1008.10
2023-04-02T04:36:08.987Z,1008.12
2023-04-02T04:37:08.825Z,1008.20
2023-04-02T04:38:08.829Z,1008.19
2023-04-02T04:39:08.867Z,1008.21
2023-04-02T04:40:08.789Z,1008.25
2023-04-02T04:41:08.811Z,1008.14
2023-04-02T04:42:08.769Z,1008.30
2023-04-02T04:43:08.764Z,1008.35
2023-04-02T04:44:08.787Z,1008.34
2023-04-02T04:45:08.740Z,1008.36
2023-04-02T04:46:08.849Z,1008.38
2023-04-02T04:47:08.716Z,1008.35
2023-04-02T04:48:08.728Z,1008.51
2023-04-02T04:49:08.694Z,1008.40
2023-04-02T04:50:08.714Z,1008.43
2023-04-02T04:51:08.680Z,1008.43
2023-04-02T04:52:08.667Z,1008.51
2023-04-02T04:53:08.661Z,1008.50
2023-04-02T04:54:08.651Z,1008.60
2023-04-02T04:55:08.728Z,1008.60
2023-04-02T04:56:18.538Z,1008.58
2023-04-02T04:57:09.681Z,1008.63
2023-04-02T04:58:08.595Z,1008.67
2023-04-02T04:59:08.655Z,1008.74
2023-04-02T05:00:08.580Z,1008.46
2023-04-02T05:01:08.588Z,1008.71
2023-04-02T05:02:08.554Z,1008.83
2023-04-02T05:03:08.547Z,1008.77
2023-04-02T05:04:08.593Z,1008.85
2023-04-02T05:05:08.579Z,1008.87
2023-04-02T05:06:09.932Z,1008.90
2023-04-02T05:07:10.588Z,1008.85
2023-04-02T05:08:08.498Z,1008.86
2023-04-02T05:09:08.488Z,1008.92
2023-04-02T05:10:08.461Z,1008.98
2023-04-02T05:11:08.507Z,1009.03
2023-04-02T05:12:08.450Z,1009.00
2023-04-02T05:13:08.452Z,1008.98
2023-04-02T05:14:08.521Z,1009.05
2023-04-02T05:15:08.526Z,1008.98
2023-04-02T05:16:08.443Z,1009.11
2023-04-02T05:17:08.438Z,1009.16
2023-04-02T05:18:08.380Z,1009.04
2023-04-02T05:19:08.409Z,1009.18
2023-04-02T05:20:08.365Z,1009.27
2023-04-02T05:21:08.363Z,1009.28
2023-04-02T05:22:08.339Z,1009.31
2023-04-02T05:23:08.333Z,1009.33
2023-04-02T05:24:08.324Z,1009.35
2023-04-02T05:25:08.415Z,1009.33
2023-04-02T05:26:08.304Z,1009.43
2023-04-02T05:27:08.316Z,1009.39
2023-04-02T05:28:08.317Z,1009.43
2023-04-02T05:29:08.327Z,1009.46
2023-04-02T05:30:08.278Z,1009.39
2023-04-02T05:31:08.292Z,1009.38
2023-04-02T05:32:08.238Z,1009.37
2023-04-02T05:33:08.286Z,1009.36
2023-04-02T05:34:08.230Z,1009.54
2023-04-02T05:35:08.207Z,1009.44
2023-04-02T05:36:08.270Z,1009.44
2023-04-02T05:37:08.208Z,1009.55
2023-04-02T05:38:08.186Z,1009.58
2023-04-02T05:39:08.209Z,1009.47
2023-04-02T05:40:08.200Z,1009.59
2023-04-02T05:41:08.165Z,1009.61
2023-04-02T05:42:08.181Z,1009.59
2023-04-02T05:43:08.152Z,1009.64
2023-04-02T05:44:10.042Z,1009.63
2023-04-02T05:45:08.127Z,1009.65
2023-04-02T05:46:08.123Z,1009.76
2023-04-02T05:47:08.087Z,1009.74
2023-04-02T05:48:08.077Z,1009.73
2023-04-02T05:49:08.158Z,1009.81
2023-04-02T05:50:08.063Z,1009.76
2023-04-02T05:51:08.042Z,1009.86
2023-04-02T05:52:08.039Z,1009.90
2023-04-02T05:53:08.035Z,1009.83
2023-04-02T05:54:08.020Z,1009.88
2023-04-02T05:55:08.039Z,1009.93
2023-04-02T05:56:08.001Z,1009.86
2023-04-02T05:57:08.021Z,1009.84
2023-04-02T05:58:31.960Z,1009.90
2023-04-02T05:59:08.983Z,1009.96
2023-04-02T06:00:07.973Z,1009.93
2023-04-02T06:01:07.973Z,1009.97
2023-04-02T06:02:07.965Z,1010.07
2023-04-02T06:03:08.098Z,1010.03
2023-04-02T06:04:07.993Z,1010.11
2023-04-02T06:05:07.898Z,1010.16
2023-04-02T06:06:07.913Z,1010.03
2023-04-02T06:07:07.921Z,1010.14
2023-04-02T06:08:07.866Z,1010.19
2023-04-02T06:09:07.850Z,1010.19
2023-04-02T06:10:07.846Z,1010.21
2023-04-02T06:11:07.835Z,1010.26
2023-04-02T06:12:07.948Z,1010.27
2023-04-02T06:13:07.877Z,1010.34
2023-04-02T06:14:07.805Z,1010.30
2023-04-02T06:15:07.792Z,1010.43
2023-04-02T06:16:07.781Z,1010.39
2023-04-02T06:17:09.346Z,1010.44
2023-04-02T06:18:07.818Z,1010.49
2023-04-02T06:19:07.763Z,1010.51
2023-04-02T06:20:07.786Z,1010.54
2023-04-02T06:21:07.725Z,1010.57
2023-04-02T06:22:07.716Z,1010.61
2023-04-02T06:23:11.618Z,1010.64
2023-04-02T06:24:07.700Z,1010.66
2023-04-02T06:25:07.698Z,1010.72
2023-04-02T06:26:08.644Z,1010.68
2023-04-02T06:27:07.656Z,1010.70
2023-04-02T06:28:07.711Z,1010.71
2023-04-02T06:29:07.699Z,1010.71
2023-04-02T06:30:07.625Z,1010.82
2023-04-02T06:31:07.861Z,1010.80
2023-04-02T06:32:07.628Z,1010.75
2023-04-02T06:33:07.763Z,1010.83
2023-04-02T06:34:07.630Z,1010.84
2023-04-02T06:35:07.582Z,1010.93
2023-04-02T06:36:07.604Z,1010.91
2023-04-02T06:37:07.558Z,1010.95
2023-04-02T06:38:07.546Z,1010.97
2023-04-02T06:39:07.561Z,1010.91
2023-04-02T06:40:10.004Z,1011.02
2023-04-02T06:41:07.509Z,1011.00
2023-04-02T06:42:07.579Z,1011.06
2023-04-02T06:43:07.497Z,1011.04
2023-04-02T06:44:07.512Z,1011.08
2023-04-02T06:45:10.337Z,1011.13
2023-04-02T06:46:07.517Z,1011.10
2023-04-02T06:47:07.480Z,1011.02
2023-04-02T06:48:07.498Z,1011.10
2023-04-02T06:49:07.441Z,1011.13
2023-04-02T06:50:09.317Z,1011.09
2023-04-02T06:51:07.428Z,1011.13
2023-04-02T06:52:07.415Z,1011.21
2023-04-02T06:53:07.397Z,1011.17
2023-04-02T06:54:07.413Z,1011.17
2023-04-02T06:55:07.478Z,1011.19
2023-04-02T06:56:07.360Z,1011.26
2023-04-02T06:57:07.737Z,1011.27
2023-04-02T06:58:07.368Z,1011.29
2023-04-02T06:59:07.386Z,1011.24
2023-04-02T07:00:07.351Z,1011.31
2023-04-02T07:01:07.392Z,1011.34
2023-04-02T07:02:07.341Z,1011.35
2023-04-02T07:03:07.334Z,1011.40
2023-04-02T07:04:07.281Z,1011.47
2023-04-02T07:05:07.417Z,1011.45
2023-04-02T07:06:07.264Z,1011.45
2023-04-02T07:07:07.241Z,1011.49
2023-04-02T07:08:07.287Z,1011.50
2023-04-02T07:09:07.218Z,1011.61
2023-04-02T07:10:07.227Z,1011.59
2023-04-02T07:11:07.190Z,1011.61
2023-04-02T07:12:07.200Z,1011.52
2023-04-02T07:13:07.373Z,1011.65
2023-04-02T07:14:07.163Z,1011.75
2023-04-02T07:15:07.197Z,1011.64
2023-04-02T07:16:08.163Z,1011.79
2023-04-02T07:17:07.138Z,1011.88
2023-04-02T07:18:07.170Z,1011.71
2023-04-02T07:19:07.125Z,1011.83
2023-04-02T07:20:07.109Z,1011.86
2023-04-02T07:21:07.147Z,1011.93
2023-04-02T07:22:07.148Z,1011.91
2023-04-02T07:23:09.771Z,1011.94
2023-04-02T07:24:07.080Z,1011.95
2023-04-02T07:25:07.075Z,1012.00
2023-04-02T07:26:07.103Z,1011.97
2023-04-02T07:27:07.049Z,1011.95
2023-04-02T07:28:07.026Z,1012.01
2023-04-02T07:29:07.018Z,1012.01
2023-04-02T07:30:07.120Z,1012.06
2023-04-02T07:31:06.990Z,1012.13
2023-04-02T07:32:07.448Z,1011.98
2023-04-02T07:33:07.007Z,1012.04
2023-04-02T07:34:06.945Z,1012.12
2023-04-02T07:35:06.944Z,1012.16
2023-04-02T07:36:07.045Z,1012.11
2023-04-02T07:37:06.950Z,1012.11
2023-04-02T07:38:06.913Z,1012.21
2023-04-02T07:39:06.917Z,1012.15
2023-04-02T07:40:06.894Z,1012.24
2023-04-02T07:41:06.882Z,1012.22
2023-04-02T07:42:06.874Z,1012.32
2023-04-02T07:43:06.968Z,1012.38
2023-04-02T07:44:06.879Z,1012.38
2023-04-02T07:45:06.858Z,1012.47
2023-04-02T07:46:06.830Z,1012.35
2023-04-02T07:47:07.131Z,1012.45
2023-04-02T07:48:06.949Z,1012.41
2023-04-02T07:49:06.916Z,1012.45
2023-04-02T07:50:06.884Z,1012.52
2023-04-02T07:51:06.776Z,1012.49
2023-04-02T07:52:06.772Z,1012.55
2023-04-02T07:53:06.754Z,1012.47
2023-04-02T07:54:06.769Z,1012.51
2023-04-02T07:55:06.844Z,1012.42
2023-04-02T07:56:06.723Z,1012.56
2023-04-02T07:57:06.798Z,1012.58
2023-04-02T07:58:06.694Z,1012.51
2023-04-02T07:59:06.699Z,1012.60
2023-04-02T08:00:06.695Z,1012.48
2023-04-02T08:01:06.668Z,1012.53
2023-04-02T08:02:06.823Z,1012.60
2023-04-02T08:03:08.362Z,1012.57
2023-04-02T08:04:06.671Z,1012.63
2023-04-02T08:05:06.629Z,1012.58
2023-04-02T08:06:06.628Z,1012.66
2023-04-02T08:07:06.626Z,1012.71
2023-04-02T08:08:06.649Z,1012.78
2023-04-02T08:09:06.591Z,1012.76
2023-04-02T08:10:06.599Z,1012.79
2023-04-02T08:11:06.552Z,1012.80
2023-04-02T08:12:06.840Z,1012.83
2023-04-02T08:13:06.545Z,1012.81
2023-04-02T08:14:06.546Z,1012.82
2023-04-02T08:15:06.593Z,1012.90
2023-04-02T08:16:06.528Z,1012.93
2023-04-02T08:17:06.499Z,1012.95
2023-04-02T08:18:06.604Z,1012.88
2023-04-02T08:19:06.507Z,1012.97
2023-04-02T08:20:06.478Z,1013.09
2023-04-02T08:21:06.483Z,1013.07
2023-04-02T08:22:06.471Z,1013.12
2023-04-02T08:23:06.445Z,1013.15
2023-04-02T08:24:06.474Z,1013.22
2023-04-02T08:25:06.420Z,1013.26
2023-04-02T08:26:06.406Z,1013.19
2023-04-02T08:27:06.770Z,1013.33
2023-04-02T08:28:06.438Z,1013.17
2023-04-02T08:29:06.374Z,1013.14
2023-04-02T08:30:06.386Z,1013.22
2023-04-02T08:31:06.382Z,1013.27
2023-04-02T08:32:06.445Z,1013.30
2023-04-02T08:33:06.451Z,1013.30
2023-04-02T08:34:06.340Z,1013.34
2023-04-02T08:35:06.337Z,1013.38
2023-04-02T08:36:06.320Z,1013.34
2023-04-02T08:37:06.336Z,1013.36
2023-04-02T08:38:06.782Z,1013.40
2023-04-02T08:39:06.284Z,1013.43
2023-04-02T08:40:06.285Z,1013.43
2023-04-02T08:41:06.261Z,1013.40
2023-04-02T08:42:06.276Z,1013.46
2023-04-02T08:43:06.315Z,1013.43
2023-04-02T08:44:06.600Z,1013.45
2023-04-02T08:45:17.150Z,1013.44
2023-04-02T08:46:07.249Z,1013.46
2023-04-02T08:47:06.254Z,1013.46
2023-04-02T08:48:06.340Z,1013.48
2023-04-02T08:49:06.228Z,1013.50
2023-04-02T08:50:06.257Z,1013.54
2023-04-02T08:51:06.241Z,1013.56
2023-04-02T08:52:06.200Z,1013.54
2023-04-02T08:53:06.145Z,1013.60
2023-04-02T08:54:06.324Z,1013.56
2023-04-02T08:55:06.104Z,1013.58
2023-04-02T08:56:06.167Z,1013.60
2023-04-02T08:57:06.120Z,1013.71
2023-04-02T08:58:06.151Z,1013.71
2023-04-02T08:59:06.063Z,1013.67
2023-04-02T09:00:06.050Z,1013.71
2023-04-02T09:01:06.075Z,1013.76
2023-04-02T09:02:06.040Z,1013.79
2023-04-02T09:03:06.057Z,1013.79
2023-04-02T09:04:06.063Z,1013.81
2023-04-02T09:05:06.128Z,1013.83
2023-04-02T09:06:06.014Z,1013.90
2023-04-02T09:07:05.971Z,1013.90
2023-04-02T09:08:05.999Z,1013.90
2023-04-02T09:09:05.955Z,1013.92
2023-04-02T09:10:06.127Z,1013.91
2023-04-02T09:11:05.936Z,1013.98
2023-04-02T09:12:07.675Z,1014.01
2023-04-02T09:13:05.905Z,1014.04
2023-04-02T09:14:15.629Z,1013.95
2023-04-02T09:15:06.631Z,1014.07
2023-04-02T09:16:07.640Z,1014.00
2023-04-02T09:17:07.668Z,1014.16
2023-04-02T09:18:05.894Z,1014.13
2023-04-02T09:19:05.857Z,1014.13
2023-04-02T09:20:05.849Z,1014.11
2023-04-02T09:21:05.822Z,1014.13
2023-04-02T09:22:05.820Z,1014.15
2023-04-02T09:23:05.956Z,1014.19
2023-04-02T09:24:05.800Z,1014.07
2023-04-02T09:25:05.780Z,1014.23
2023-04-02T09:26:05.808Z,1014.22
2023-04-02T09:27:05.756Z,1014.30
2023-04-02T09:28:05.741Z,1014.26
2023-04-02T09:29:05.740Z,1014.30
2023-04-02T09:30:05.717Z,1014.33
2023-04-02T09:31:07.079Z,1014.34
2023-04-02T09:32:05.805Z,1014.42
2023-04-02T09:33:05.698Z,1014.43
2023-04-02T09:34:05.680Z,1014.36
2023-04-02T09:35:12.256Z,1014.37
2023-04-02T09:36:09.322Z,1014.42
2023-04-02T09:37:05.647Z,1014.40
2023-04-02T09:38:05.640Z,1014.40
2023-04-02T09:39:05.620Z,1014.41
2023-04-02T09:40:05.617Z,1014.52
2023-04-02T09:41:05.641Z,1014.50
2023-04-02T09:42:06.069Z,1014.49
2023-04-02T09:43:05.582Z,1014.54
2023-04-02T09:44:05.566Z,1014.59
2023-04-02T09:45:05.560Z,1014.52
2023-04-02T09:46:05.548Z,1014.59
2023-04-02T09:47:05.663Z,1014.58
2023-04-02T09:48:05.661Z,1014.64
2023-04-02T09:49:05.522Z,1014.61
2023-04-02T09:50:05.508Z,1014.63
2023-04-02T09:51:05.512Z,1014.65
2023-04-02T09:52:05.494Z,1014.61
2023-04-02T09:53:08.709Z,1014.72
2023-04-02T09:54:05.565Z,1014.78
2023-04-02T09:55:05.494Z,1014.78
2023-04-02T09:56:05.442Z,1014.69
2023-04-02T09:57:06.095Z,1014.67
2023-04-02T09:58:05.873Z,1014.79
2023-04-02T09:59:05.425Z,1014.81
2023-04-02T10:00:05.756Z,1014.87
2023-04-02T10:01:05.402Z,1014.79
2023-04-02T10:02:05.408Z,1014.88
2023-04-02T10:03:05.440Z,1014.86
2023-04-02T10:04:05.433Z,1014.95
2023-04-02T10:05:05.377Z,1014.92
2023-04-02T10:06:05.331Z,1014.96
2023-04-02T10:07:05.329Z,1014.95
2023-04-02T10:08:05.311Z,1014.99
2023-04-02T10:09:05.572Z,1014.86
2023-04-02T10:10:05.302Z,1014.97
2023-04-02T10:11:05.316Z,1014.97
2023-04-02T10:12:05.304Z,1014.99
2023-04-02T10:13:05.275Z,1015.07
2023-04-02T10:14:05.243Z,1015.03
2023-04-02T10:15:05.248Z,1014.99
2023-04-02T10:16:05.324Z,1015.06
2023-04-02T10:17:05.307Z,1015.01
2023-04-02T10:18:05.271Z,1015.14
2023-04-02T10:19:05.221Z,1015.13
2023-04-02T10:20:05.183Z,1015.09
2023-04-02T10:21:05.191Z,1015.16
2023-04-02T10:22:05.229Z,1015.27
2023-04-02T10:23:06.520Z,1015.23
2023-04-02T10:24:05.162Z,1015.24
2023-04-02T10:25:05.138Z,1015.26
2023-04-02T10:26:05.147Z,1015.26
2023-04-02T10:27:05.142Z,1015.30
2023-04-02T10:28:05.136Z,1015.34
2023-04-02T10:29:06.868Z,1015.37
2023-04-02T10:30:05.114Z,1015.40
2023-04-02T10:31:05.149Z,1015.41
2023-04-02T10:32:05.064Z,1015.40
2023-04-02T10:33:05.086Z,1015.43
2023-04-02T10:34:05.049Z,1015.40
2023-04-02T10:35:05.037Z,1015.55
2023-04-02T10:36:05.351Z,1015.39
2023-04-02T10:37:05.010Z,1015.39
2023-04-02T10:38:04.997Z,1015.50
2023-04-02T10:39:05.046Z,1015.39
2023-04-02T10:40:04.967Z,1015.53
2023-04-02T10:41:04.976Z,1015.50
2023-04-02T10:42:04.973Z,1015.57
2023-04-02T10:43:04.943Z,1015.53
2023-04-02T10:44:13.068Z,1015.57
2023-04-02T10:45:05.937Z,1015.52
2023-04-02T10:46:05.004Z,1015.58
2023-04-02T10:47:04.958Z,1015.63
2023-04-02T10:48:05.189Z,1015.70
2023-04-02T10:49:04.954Z,1015.61
2023-04-02T10:50:07.724Z,1015.72
2023-04-02T10:51:04.859Z,1015.75
2023-04-02T10:52:04.849Z,1015.75
2023-04-02T10:53:04.845Z,1015.78
2023-04-02T10:54:04.829Z,1015.72
2023-04-02T10:55:04.845Z,1015.77
2023-04-02T10:56:04.841Z,1015.80
2023-04-02T10:57:04.857Z,1015.82
2023-04-02T10:58:04.773Z,1015.77
2023-04-02T10:59:04.788Z,1015.75
2023-04-02T11:00:04.760Z,1015.83
2023-04-02T11:01:04.795Z,1015.84
2023-04-02T11:02:04.735Z,1015.82
2023-04-02T11:03:04.833Z,1015.87
2023-04-02T11:04:04.722Z,1015.89
2023-04-02T11:05:04.754Z,1015.91
2023-04-02T11:06:04.696Z,1015.92
2023-04-02T11:07:13.688Z,1015.91
2023-04-02T11:08:05.688Z,1015.99
2023-04-02T11:09:04.670Z,1016.01
2023-04-02T11:10:04.655Z,1015.94
2023-04-02T11:11:04.837Z,1015.99
2023-04-02T11:12:04.623Z,1016.01
2023-04-02T11:13:04.623Z,1016.11
2023-04-02T11:14:04.611Z,1016.06
2023-04-02T11:15:04.662Z,1016.16
2023-04-02T11:16:04.642Z,1016.16
2023-04-02T11:17:04.578Z,1016.27
2023-04-02T11:18:04.644Z,1016.27
2023-04-02T11:19:04.557Z,1016.19
2023-04-02T11:20:04.542Z,1016.15
2023-04-02T11:21:04.542Z,1016.20
2023-04-02T11:22:06.661Z,1016.25
2023-04-02T11:23:04.526Z,1016.24
2023-04-02T11:24:04.535Z,1016.19
2023-04-02T11:25:04.500Z,1016.32
2023-04-02T11:26:04.534Z,1016.25
2023-04-02T11:27:04.510Z,1016.27
2023-04-02T11:28:04.471Z,1016.25
2023-04-02T11:29:04.502Z,1016.32
2023-04-02T11:30:04.480Z,1016.31
2023-04-02T11:31:04.458Z,1016.31
2023-04-02T11:32:04.423Z,1016.36
2023-04-02T11:33:04.513Z,1016.30
2023-04-02T11:34:04.403Z,1016.24
2023-04-02T11:35:07.421Z,1016.36
2023-04-02T11:36:04.487Z,1016.36
2023-04-02T11:37:04.369Z,1016.42
2023-04-02T11:38:04.363Z,1016.36
2023-04-02T11:39:11.004Z,1016.43
2023-04-02T11:40:05.365Z,1016.44
2023-04-02T11:41:04.371Z,1016.36
2023-04-02T11:42:04.392Z,1016.39
2023-04-02T11:43:04.311Z,1016.45
2023-04-02T11:44:04.294Z,1016.50
2023-04-02T11:45:04.284Z,1016.46
2023-04-02T11:46:04.300Z,1016.52
2023-04-02T11:47:04.273Z,1016.50
2023-04-02T11:48:04.334Z,1016.48
2023-04-02T11:49:09.155Z,1016.56
2023-04-02T11:50:04.322Z,1016.55
2023-04-02T11:51:04.229Z,1016.56
2023-04-02T11:52:11.599Z,1016.56
2023-04-02T11:53:05.200Z,1016.64
2023-04-02T11:54:04.216Z,1016.65
2023-04-02T11:55:04.174Z,1016.66
2023-04-02T11:56:04.162Z,1016.68
2023-04-02T11:57:04.193Z,1016.64
2023-04-02T11:58:04.169Z,1016.72
2023-04-02T11:59:04.134Z,1016.71
2023-04-02T12:00:04.116Z,1016.71
2023-04-02T12:01:04.114Z,1016.75
2023-04-02T12:02:04.143Z,1016.70
2023-04-02T12:03:04.180Z,1016.73
2023-04-02T12:04:04.182Z,1016.72
2023-04-02T12:05:04.162Z,1016.69